createdAt,value
2019-04-21T00:02:20.027Z,30.50
2019-04-21T00:04:56.886Z,30.40
2019-04-21T00:07:31.568Z,30.40
2019-04-21T00:10:14.437Z,30.40
2019-04-21T00:12:35.857Z,30.30
2019-04-21T00:15:03.547Z,30.40
2019-04-21T00:17:26.551Z,30.40
2019-04-21T00:20:09.216Z,30.50
2019-04-21T00:22:44.037Z,30.50
2019-04-21T00:25:36.217Z,30.50
2019-04-21T00:28:21.948Z,30.60
2019-04-21T00:30:50.564Z,30.50
2019-04-21T00:33:06.879Z,30.50
2019-04-21T00:35:41.477Z,30.60
2019-04-21T00:38:28.513Z,30.60
2019-04-21T00:41:00.410Z,30.60
2019-04-21T00:43:26.072Z,30.70
2019-04-21T00:45:55.054Z,30.60
2019-04-21T00:48:34.429Z,30.70
2019-04-21T00:54:07.073Z,30.70
2019-04-21T00:56:28.864Z,30.70
2019-04-21T00:59:07.121Z,30.70
2019-04-21T01:01:31.248Z,30.80
2019-04-21T01:04:09.998Z,30.80
2019-04-21T01:06:43.465Z,30.90
2019-04-21T01:09:09.526Z,30.90
2019-04-21T01:11:47.808Z,30.90
2019-04-21T01:14:28.038Z,31.00
2019-04-21T01:16:56.182Z,31.00
2019-04-21T01:19:16.677Z,31.00
2019-04-21T01:21:32.516Z,31.00
2019-04-21T01:24:11.800Z,30.90
2019-04-21T01:26:48.454Z,31.00
2019-04-21T01:29:29.010Z,31.00
2019-04-21T01:32:16.081Z,31.00
2019-04-21T01:34:39.357Z,31.00
2019-04-21T01:37:05.697Z,31.10
2019-04-21T01:39:58.504Z,31.10
2019-04-21T01:42:18.852Z,31.10
2019-04-21T01:44:52.313Z,31.20
2019-04-21T01:47:17.526Z,31.30
2019-04-21T01:49:47.247Z,31.20
2019-04-21T01:52:38.666Z,31.30
2019-04-21T01:55:25.162Z,31.30
2019-04-21T02:00:57.182Z,31.40
2019-04-21T02:08:41.571Z,31.50
2019-04-21T02:11:18.870Z,31.50
2019-04-21T02:13:53.513Z,31.60
2019-04-21T02:16:25.172Z,31.70
2019-04-21T02:18:52.601Z,31.70
2019-04-21T02:21:21.786Z,31.80
2019-04-21T02:24:01.691Z,31.80
2019-04-21T02:26:37.502Z,31.80
2019-04-21T02:29:08.638Z,31.80
2019-04-21T02:34:32.276Z,31.90
2019-04-21T02:37:05.209Z,31.90
2019-04-21T02:39:21.254Z,31.90
2019-04-21T02:41:55.873Z,31.90
2019-04-21T02:44:28.033Z,31.90
2019-04-21T02:47:21.196Z,31.90
2019-04-21T02:52:18.243Z,32.00
2019-04-21T03:00:10.032Z,32.10
2019-04-21T03:02:34.509Z,32.10
2019-04-21T03:05:21.076Z,32.10
2019-04-21T03:07:34.455Z,32.20
2019-04-21T03:10:12.541Z,32.20
2019-04-21T03:12:38.109Z,32.30
2019-04-21T03:20:19.562Z,32.40
2019-04-21T03:22:53.145Z,32.50
2019-04-21T03:25:33.898Z,32.60
2019-04-21T03:30:45.707Z,32.70
2019-04-21T03:38:03.938Z,32.80
2019-04-21T03:40:32.228Z,32.90
2019-04-21T03:45:49.111Z,33.00
2019-04-21T03:48:17.290Z,33.00
2019-04-21T03:50:50.875Z,33.00
2019-04-21T03:53:18.580Z,33.00
2019-04-21T03:55:58.694Z,33.00
2019-04-21T04:01:05.446Z,33.10
2019-04-21T04:04:00.788Z,33.20
2019-04-21T04:06:20.539Z,33.20
2019-04-21T04:11:39.769Z,33.30
2019-04-21T04:14:26.644Z,33.30
2019-04-21T04:17:06.139Z,33.40
2019-04-21T04:24:50.234Z,33.60
2019-04-21T04:27:20.949Z,33.70
2019-04-21T04:29:42.301Z,33.80
2019-04-21T04:32:16.949Z,33.80
2019-04-21T04:40:19.695Z,33.80
2019-04-21T04:53:34.673Z,34.20
2019-04-21T04:58:55.500Z,34.20
2019-04-21T05:01:14.167Z,34.20
2019-04-21T05:11:50.491Z,34.30
2019-04-21T05:16:48.411Z,34.60
2019-04-21T05:19:14.900Z,34.60
2019-04-21T05:24:10.776Z,34.60
2019-04-21T05:26:34.443Z,34.60
2019-04-21T05:29:05.330Z,34.60
2019-04-21T05:31:50.962Z,34.70
2019-04-21T05:34:21.944Z,34.70
2019-04-21T05:37:03.913Z,34.80
2019-04-21T05:39:36.215Z,34.90
2019-04-21T05:42:00.752Z,34.90
2019-04-21T05:47:35.505Z,35.00
2019-04-21T05:50:19.126Z,35.10
2019-04-21T05:52:53.552Z,35.10
2019-04-21T05:55:57.112Z,35.10
2019-04-21T05:58:31.595Z,35.20
2019-04-21T06:01:33.339Z,35.20
2019-04-21T06:04:05.554Z,35.20
2019-04-21T06:06:35.497Z,35.30
2019-04-21T06:09:15.748Z,35.30
2019-04-21T06:11:45.043Z,35.40
2019-04-21T06:14:14.438Z,35.40
2019-04-21T06:16:58.150Z,35.40
2019-04-21T06:19:31.158Z,35.50
2019-04-21T06:21:56.920Z,35.50
2019-04-21T06:24:32.608Z,35.60
2019-04-21T06:29:43.723Z,35.50
2019-04-21T06:32:46.142Z,35.50
2019-04-21T06:34:59.120Z,35.50
2019-04-21T06:42:48.675Z,35.60
2019-04-21T06:45:27.370Z,35.60
2019-04-21T06:48:04.657Z,35.60
2019-04-21T06:53:22.958Z,35.70
2019-04-21T06:55:51.667Z,35.80
2019-04-21T06:58:27.839Z,35.80
2019-04-21T07:00:57.669Z,35.80
2019-04-21T07:03:34.697Z,35.80
2019-04-21T07:06:09.464Z,35.70
2019-04-21T07:08:57.692Z,35.70
2019-04-21T07:11:18.741Z,35.60
2019-04-21T07:14:16.163Z,35.50
2019-04-21T07:16:33.423Z,35.60
2019-04-21T07:19:10.064Z,35.60
2019-04-21T07:21:43.402Z,35.60
2019-04-21T07:24:14.498Z,35.60
2019-04-21T07:26:44.747Z,35.50
2019-04-21T07:29:15.796Z,35.50
2019-04-21T07:31:54.157Z,35.50
2019-04-21T07:34:25.142Z,35.50
2019-04-21T07:39:27.148Z,35.60
2019-04-21T07:41:52.275Z,35.60
2019-04-21T07:44:29.119Z,35.60
2019-04-21T07:46:58.535Z,35.60
2019-04-21T07:49:59.011Z,35.60
2019-04-21T07:52:36.334Z,35.60
2019-04-21T07:57:36.649Z,35.60
2019-04-21T08:00:20.696Z,35.60
2019-04-21T08:02:40.420Z,35.70
2019-04-21T08:10:15.595Z,35.70
2019-04-21T08:12:48.083Z,35.60
2019-04-21T08:17:58.181Z,35.70
2019-04-21T08:20:24.060Z,35.70
2019-04-21T08:22:59.560Z,35.80
2019-04-21T08:25:58.969Z,35.70
2019-04-21T08:28:26.412Z,35.70
2019-04-21T08:30:55.489Z,35.60
2019-04-21T08:33:37.181Z,35.60
2019-04-21T08:36:12.974Z,35.60
2019-04-21T08:38:35.844Z,35.60
2019-04-21T08:46:09.709Z,35.60
2019-04-21T08:48:46.575Z,35.50
2019-04-21T08:53:47.553Z,35.50
2019-04-21T08:56:21.351Z,35.50
2019-04-21T09:01:43.034Z,35.40
2019-04-21T09:04:21.175Z,35.50
2019-04-21T09:07:05.325Z,35.50
2019-04-21T09:09:57.187Z,35.40
2019-04-21T09:12:14.998Z,35.40
2019-04-21T09:14:51.277Z,35.30
2019-04-21T09:17:28.556Z,35.20
2019-04-21T09:20:12.650Z,35.30
2019-04-21T09:22:35.851Z,35.20
2019-04-21T09:25:09.071Z,35.10
2019-04-21T09:27:39.242Z,35.10
2019-04-21T09:30:01.259Z,35.10
2019-04-21T09:32:32.862Z,35.10
2019-04-21T09:35:09.805Z,35.10
2019-04-21T09:44:45.459Z,35.00
2019-04-21T09:47:18.999Z,34.90
2019-04-21T09:49:49.432Z,34.90
2019-04-21T09:52:36.124Z,34.90
2019-04-21T09:55:07.275Z,34.90
2019-04-21T09:57:41.456Z,34.90
2019-04-21T10:00:10.793Z,34.80
2019-04-21T10:02:42.843Z,34.70
2019-04-21T10:05:09.947Z,34.80
2019-04-21T10:07:42.906Z,34.70
2019-04-21T10:10:13.245Z,34.60
2019-04-21T10:12:45.392Z,34.60
2019-04-21T10:15:16.567Z,34.50
2019-04-21T10:17:52.301Z,34.60
2019-04-21T10:20:24.404Z,34.50
2019-04-21T10:22:55.625Z,34.50
2019-04-21T10:25:26.551Z,34.50
2019-04-21T10:27:57.356Z,34.40
2019-04-21T10:30:28.725Z,34.40
2019-04-21T10:33:00.606Z,34.40
2019-04-21T10:35:32.684Z,34.30
2019-04-21T10:38:16.963Z,34.30
2019-04-21T10:40:37.291Z,34.40
2019-04-21T10:43:10.780Z,34.30
2019-04-21T10:45:40.970Z,34.30
2019-04-21T10:48:12.812Z,34.20
2019-04-21T10:50:43.453Z,34.20
2019-04-21T10:53:16.593Z,34.10
2019-04-21T10:56:00.393Z,34.10
2019-04-21T10:58:24.438Z,34.00
2019-04-21T11:00:57.838Z,33.90
2019-04-21T11:03:33.174Z,33.80
2019-04-21T11:06:04.488Z,33.80
2019-04-21T11:08:44.019Z,33.70
2019-04-21T11:11:12.249Z,33.70
2019-04-21T11:13:44.379Z,33.70
2019-04-21T11:16:17.147Z,33.60
2019-04-21T11:18:48.521Z,33.60
2019-04-21T11:21:20.749Z,33.50
2019-04-21T11:23:52.201Z,33.60
2019-04-21T11:26:24.175Z,33.60
2019-04-21T11:28:56.721Z,33.50
2019-04-21T11:31:27.540Z,33.50
2019-04-21T11:33:58.289Z,33.40
2019-04-21T11:36:29.468Z,33.40
2019-04-21T11:39:21.023Z,33.40
2019-04-21T11:41:41.552Z,33.40
2019-04-21T11:44:12.523Z,33.30
2019-04-21T11:46:44.453Z,33.20
2019-04-21T11:49:15.812Z,33.20
2019-04-21T11:51:46.977Z,33.10
2019-04-21T11:54:19.055Z,33.20
2019-04-21T11:56:50.663Z,33.20
2019-04-21T11:59:21.759Z,33.10
2019-04-21T12:01:53.943Z,33.00
2019-04-21T12:04:25.445Z,33.00
2019-04-21T12:06:57.724Z,33.10
2019-04-21T12:09:29.309Z,33.00
2019-04-21T12:12:01.126Z,32.90
2019-04-21T12:14:32.121Z,32.90
2019-04-21T12:17:02.851Z,32.90
2019-04-21T12:19:34.725Z,32.90
2019-04-21T12:22:15.644Z,32.80
2019-04-21T12:24:39.639Z,32.70
2019-04-21T12:27:11.912Z,32.80
2019-04-21T12:29:44.044Z,32.80
2019-04-21T12:32:20.239Z,32.80
2019-04-21T12:34:52.169Z,32.80
2019-04-21T12:37:24.627Z,32.70
2019-04-21T12:39:56.746Z,32.70
2019-04-21T12:42:27.581Z,32.70
2019-04-21T12:44:59.345Z,32.70
2019-04-21T12:47:30.220Z,32.70
2019-04-21T12:50:02.602Z,32.50
2019-04-21T12:52:34.146Z,32.60
2019-04-21T12:55:05.806Z,32.60
2019-04-21T12:57:37.213Z,32.60
2019-04-21T13:00:11.269Z,32.60
2019-04-21T13:02:43.429Z,32.60
2019-04-21T13:05:15.709Z,32.50
2019-04-21T13:08:07.233Z,32.60
2019-04-21T13:10:38.298Z,32.50
2019-04-21T13:13:10.068Z,32.50
2019-04-21T13:15:41.134Z,32.50
2019-04-21T13:18:12.389Z,32.50
2019-04-21T13:20:44.364Z,32.50
2019-04-21T13:25:52.249Z,32.60
2019-04-21T13:28:30.318Z,32.50
2019-04-21T13:31:02.314Z,32.50
2019-04-21T13:33:36.035Z,32.50
2019-04-21T13:36:07.627Z,32.50
2019-04-21T13:38:57.214Z,32.40
2019-04-21T13:41:35.155Z,32.40
2019-04-21T13:43:52.949Z,32.40
2019-04-21T13:46:24.933Z,32.40
2019-04-21T13:48:55.950Z,32.40
2019-04-21T13:51:27.467Z,32.40
2019-04-21T13:53:59.457Z,32.40
2019-04-21T13:56:32.060Z,32.40
2019-04-21T13:59:02.688Z,32.40
2019-04-21T14:01:34.013Z,32.40
2019-04-21T14:04:05.316Z,32.30
2019-04-21T14:06:36.369Z,32.40
2019-04-21T14:09:09.606Z,32.40
2019-04-21T14:11:41.132Z,32.30
2019-04-21T14:14:12.450Z,32.40
2019-04-21T14:16:44.152Z,32.30
2019-04-21T14:19:15.593Z,32.30
2019-04-21T14:21:49.476Z,32.30
2019-04-21T14:24:19.119Z,32.20
2019-04-21T14:26:50.214Z,32.30
2019-04-21T14:29:21.756Z,32.30
2019-04-21T14:31:53.251Z,32.40
2019-04-21T14:34:24.177Z,32.30
2019-04-21T14:36:55.025Z,32.30
2019-04-21T14:39:26.408Z,32.20
2019-04-21T14:41:58.122Z,32.20
2019-04-21T14:44:29.167Z,32.20
2019-04-21T14:47:03.017Z,32.10
2019-04-21T14:49:39.425Z,32.10
2019-04-21T14:52:25.276Z,32.10
2019-04-21T14:54:58.551Z,32.10
2019-04-21T14:57:29.620Z,32.10
2019-04-21T15:00:02.898Z,32.10
2019-04-21T15:02:34.016Z,32.00
2019-04-21T15:05:09.533Z,32.00
2019-04-21T15:07:41.376Z,32.00
2019-04-21T15:10:33.461Z,32.00
2019-04-21T15:13:05.705Z,32.00
2019-04-21T15:15:38.047Z,32.00
2019-04-21T15:18:10.414Z,32.10
2019-04-21T15:20:42.447Z,32.10
2019-04-21T15:23:14.470Z,32.10
2019-04-21T15:25:46.051Z,32.00
2019-04-21T15:28:17.834Z,32.00
2019-04-21T15:30:50.286Z,32.00
2019-04-21T15:33:22.301Z,32.00
2019-04-21T15:35:53.208Z,32.00
2019-04-21T15:38:25.420Z,31.90
2019-04-21T15:41:00.742Z,31.90
2019-04-21T15:43:28.855Z,31.90
2019-04-21T15:46:00.651Z,31.90
2019-04-21T15:48:52.931Z,31.90
2019-04-21T15:51:23.976Z,31.90
2019-04-21T15:53:55.634Z,31.90
2019-04-21T15:56:28.883Z,31.90
2019-04-21T15:59:16.642Z,31.80
2019-04-21T16:01:50.653Z,31.90
2019-04-21T16:04:22.913Z,31.80
2019-04-21T16:06:55.365Z,31.90
2019-04-21T16:09:28.678Z,31.80
2019-04-21T16:11:59.882Z,31.90
2019-04-21T16:14:30.737Z,31.90
2019-04-21T16:17:01.513Z,31.90
2019-04-21T16:19:33.321Z,31.80
2019-04-21T16:22:06.426Z,31.70
2019-04-21T16:24:38.142Z,31.70
2019-04-21T16:27:11.096Z,31.70
2019-04-21T16:29:41.718Z,31.70
2019-04-21T16:32:14.678Z,31.70
2019-04-21T16:34:50.989Z,31.60
2019-04-21T16:37:17.447Z,31.60
2019-04-21T16:39:49.416Z,31.70
2019-04-21T16:42:20.482Z,31.70
2019-04-21T16:44:52.676Z,31.70
2019-04-21T16:47:26.108Z,31.70
2019-04-21T16:49:57.981Z,31.70
2019-04-21T16:52:47.710Z,31.70
2019-04-21T16:55:24.723Z,31.70
2019-04-21T16:58:09.221Z,31.80
2019-04-21T17:00:41.847Z,31.70
2019-04-21T17:03:04.372Z,31.60
2019-04-21T17:05:36.263Z,31.50
2019-04-21T17:08:08.113Z,31.50
2019-04-21T17:10:40.331Z,31.50
2019-04-21T17:13:32.053Z,31.50
2019-04-21T17:16:32.736Z,31.50
2019-04-21T17:18:50.203Z,31.40
2019-04-21T17:21:08.759Z,31.50
2019-04-21T17:23:40.709Z,31.50
2019-04-21T17:26:13.119Z,31.40
2019-04-21T17:28:44.986Z,31.40
2019-04-21T17:31:16.184Z,31.30
2019-04-21T17:33:48.432Z,31.30
2019-04-21T17:36:21.011Z,31.30
2019-04-21T17:38:52.277Z,31.30
2019-04-21T17:41:30.622Z,31.30
2019-04-21T17:43:56.181Z,31.30
2019-04-21T17:46:36.669Z,31.20
2019-04-21T17:48:59.162Z,31.20
2019-04-21T17:51:31.976Z,31.20
2019-04-21T17:54:13.925Z,31.30
2019-04-21T17:56:59.631Z,31.20
2019-04-21T17:59:41.516Z,31.20
2019-04-21T18:02:02.306Z,31.20
2019-04-21T18:04:33.439Z,31.20
2019-04-21T18:07:27.587Z,31.20
2019-04-21T18:12:31.295Z,31.20
2019-04-21T18:14:59.153Z,31.10
2019-04-21T18:17:20.606Z,31.10
2019-04-21T18:19:54.922Z,31.10
2019-04-21T18:22:46.924Z,31.10
2019-04-21T18:25:36.164Z,31.10
2019-04-21T18:27:58.720Z,31.10
2019-04-21T18:30:48.749Z,31.10
2019-04-21T18:33:25.069Z,31.10
2019-04-21T18:36:00.631Z,31.00
2019-04-21T18:38:54.810Z,31.00
2019-04-21T18:41:07.610Z,31.00
2019-04-21T18:44:19.089Z,31.00
2019-04-21T18:46:38.637Z,30.90
2019-04-21T18:49:00.612Z,31.00
2019-04-21T18:51:58.743Z,31.00
2019-04-21T18:54:37.743Z,31.00
2019-04-21T18:56:57.618Z,30.90
2019-04-21T18:59:31.079Z,31.00
2019-04-21T19:02:02.189Z,30.90
2019-04-21T19:04:30.075Z,30.80
2019-04-21T19:07:12.980Z,31.00
2019-04-21T19:10:10.032Z,31.00
2019-04-21T19:12:35.150Z,30.90
2019-04-21T19:14:56.290Z,31.00
2019-04-21T19:22:32.918Z,30.80
2019-04-21T19:25:08.383Z,30.90
2019-04-21T19:27:31.049Z,30.90
2019-04-21T19:30:17.687Z,31.00
2019-04-21T19:32:41.335Z,30.90
2019-04-21T19:34:59.631Z,30.90
2019-04-21T19:37:29.822Z,30.80
2019-04-21T19:40:12.161Z,30.80
2019-04-21T19:42:42.086Z,30.70
2019-04-21T19:45:17.644Z,30.80
2019-04-21T19:47:57.753Z,30.80
2019-04-21T19:50:33.533Z,30.80
2019-04-21T19:52:52.006Z,30.80
2019-04-21T19:55:14.253Z,30.70
2019-04-21T19:57:45.112Z,30.70
2019-04-21T20:00:17.528Z,30.80
2019-04-21T20:02:50.294Z,30.80
2019-04-21T20:05:32.704Z,30.80
2019-04-21T20:08:11.306Z,30.80
2019-04-21T20:10:44.410Z,30.80
2019-04-21T20:13:25.968Z,30.80
2019-04-21T20:15:54.029Z,30.70
2019-04-21T20:18:15.312Z,30.70
2019-04-21T20:20:35.227Z,30.80
2019-04-21T20:23:13.202Z,30.80
2019-04-21T20:25:45.702Z,30.80
2019-04-21T20:28:21.177Z,30.90
2019-04-21T20:31:03.602Z,30.80
2019-04-21T20:33:50.527Z,30.80
2019-04-21T20:36:12.321Z,30.90
2019-04-21T20:38:31.324Z,30.80
2019-04-21T20:41:03.458Z,30.80
2019-04-21T20:43:47.328Z,30.80
2019-04-21T20:46:13.684Z,30.80
2019-04-21T20:48:48.060Z,30.80
2019-04-21T20:51:38.941Z,30.70
2019-04-21T20:54:08.614Z,30.80
2019-04-21T20:56:45.324Z,30.70
2019-04-21T20:59:16.305Z,30.80
2019-04-21T21:01:49.507Z,30.80
2019-04-21T21:04:17.470Z,30.70
2019-04-21T21:06:52.568Z,30.70
2019-04-21T21:09:23.054Z,30.70
2019-04-21T21:12:11.450Z,30.70
2019-04-21T21:14:30.886Z,30.70
2019-04-21T21:17:06.509Z,30.70
2019-04-21T21:19:40.113Z,30.70
2019-04-21T21:21:59.151Z,30.70
2019-04-21T21:24:49.030Z,30.70
2019-04-21T21:27:14.195Z,30.70
2019-04-21T21:29:45.339Z,30.70
2019-04-21T21:32:29.164Z,30.60
2019-04-21T21:34:49.705Z,30.60
2019-04-21T21:39:56.909Z,30.60
2019-04-21T21:42:11.837Z,30.70
2019-04-21T21:44:50.445Z,30.70
2019-04-21T21:47:28.018Z,30.60
2019-04-21T21:49:57.711Z,30.50
2019-04-21T21:52:35.397Z,30.60
2019-04-21T21:54:51.892Z,30.60
2019-04-21T21:57:24.487Z,30.60
2019-04-21T22:00:17.121Z,30.60
2019-04-21T22:02:51.311Z,30.60
2019-04-21T22:05:25.470Z,30.60
2019-04-21T22:07:54.335Z,30.60
2019-04-21T22:10:25.451Z,30.50
2019-04-21T22:13:19.799Z,30.60
2019-04-21T22:15:56.467Z,30.60
2019-04-21T22:18:39.214Z,30.50
2019-04-21T22:21:09.062Z,30.50
2019-04-21T22:23:36.774Z,30.50
2019-04-21T22:25:57.653Z,30.50
2019-04-21T22:28:29.556Z,30.50
2019-04-21T22:31:01.057Z,30.50
2019-04-21T22:33:38.959Z,30.60
2019-04-21T22:36:18.515Z,30.50
2019-04-21T22:38:50.937Z,30.60
2019-04-21T22:41:19.011Z,30.60
2019-04-21T22:43:44.386Z,30.50
2019-04-21T22:46:15.390Z,30.40
2019-04-21T22:48:55.895Z,30.40
2019-04-21T22:51:42.973Z,30.40
2019-04-21T22:54:13.960Z,30.50
2019-04-21T22:56:53.998Z,30.50
2019-04-21T22:59:18.647Z,30.50
2019-04-21T23:01:49.917Z,30.40
2019-04-21T23:04:19.067Z,30.40
2019-04-21T23:06:56.740Z,30.40
2019-04-21T23:09:22.549Z,30.40
2019-04-21T23:11:56.082Z,30.50
2019-04-21T23:14:25.871Z,30.40
2019-04-21T23:17:14.871Z,30.30
2019-04-21T23:19:42.629Z,30.40
2019-04-21T23:22:16.215Z,30.40
2019-04-21T23:24:51.611Z,30.40
2019-04-21T23:27:15.504Z,30.30
2019-04-21T23:30:11.051Z,30.40
2019-04-21T23:32:23.558Z,30.40
2019-04-21T23:34:44.191Z,30.30
2019-04-21T23:37:20.253Z,30.30
2019-04-21T23:39:59.238Z,30.40
2019-04-21T23:42:31.126Z,30.40
2019-04-21T23:44:58.171Z,30.40
2019-04-21T23:47:42.082Z,30.40
2019-04-21T23:50:10.991Z,30.40
2019-04-21T23:52:35.329Z,30.50
2019-04-21T23:55:07.586Z,30.50
2019-04-21T23:57:43.098Z,30.60
